createdAt,value
2023-03-06T00:00:01.668Z,3.92
2023-03-06T00:00:57.697Z,3.88
2023-03-06T00:01:53.736Z,3.99
2023-03-06T00:02:49.763Z,4.00
2023-03-06T00:03:45.369Z,3.99
2023-03-06T00:04:41.343Z,3.90
2023-03-06T00:05:37.427Z,3.92
2023-03-06T00:06:33.383Z,3.87
2023-03-06T00:07:28.969Z,3.91
2023-03-06T00:08:24.999Z,3.91
2023-03-06T00:09:20.523Z,4.05
2023-03-06T00:10:16.531Z,3.91
2023-03-06T00:11:12.558Z,4.00
2023-03-06T00:12:08.570Z,4.00
2023-03-06T00:13:04.174Z,4.03
2023-03-06T00:13:59.710Z,3.85
2023-03-06T00:14:55.261Z,3.94
2023-03-06T00:15:50.847Z,3.74
2023-03-06T00:16:46.820Z,3.96
2023-03-06T00:17:42.369Z,3.91
2023-03-06T00:18:37.962Z,3.92
2023-03-06T00:19:33.507Z,3.98
2023-03-06T00:20:29.064Z,3.82
2023-03-06T00:21:24.609Z,3.73
2023-03-06T00:22:20.149Z,3.87
2023-03-06T00:23:15.702Z,3.73
2023-03-06T00:24:11.746Z,3.76
2023-03-06T00:25:07.741Z,3.78
2023-03-06T00:26:03.301Z,3.82
2023-03-06T00:26:59.312Z,3.82
2023-03-06T00:27:54.864Z,3.82
2023-03-06T00:28:50.449Z,3.85
2023-03-06T00:29:45.996Z,3.76
2023-03-06T00:30:42.016Z,3.73
2023-03-06T00:31:37.591Z,3.85
2023-03-06T00:32:33.624Z,3.63
2023-03-06T00:33:29.594Z,3.64
2023-03-06T00:34:25.616Z,3.69
2023-03-06T00:35:21.692Z,3.70
2023-03-06T00:36:17.693Z,3.55
2023-03-06T00:37:13.694Z,3.55
2023-03-06T00:38:09.731Z,3.64
2023-03-06T00:39:05.823Z,3.62
2023-03-06T00:40:01.312Z,3.62
2023-03-06T00:40:56.846Z,3.64
2023-03-06T00:41:52.860Z,3.64
2023-03-06T00:42:48.413Z,3.59
2023-03-06T00:43:43.967Z,3.66
2023-03-06T00:44:39.980Z,3.73
2023-03-06T00:45:36.572Z,3.59
2023-03-06T00:46:32.094Z,3.62
2023-03-06T00:47:27.646Z,3.64
2023-03-06T00:48:23.215Z,3.66
2023-03-06T00:49:18.849Z,3.69
2023-03-06T00:50:14.338Z,3.66
2023-03-06T00:51:12.791Z,3.54
2023-03-06T00:52:05.922Z,3.63
2023-03-06T00:53:01.485Z,3.63
2023-03-06T00:53:57.496Z,3.64
2023-03-06T00:54:53.057Z,3.56
2023-03-06T00:55:49.085Z,3.56
2023-03-06T00:56:45.089Z,3.59
2023-03-06T00:57:41.148Z,3.55
2023-03-06T00:58:36.695Z,3.59
2023-03-06T00:59:32.250Z,3.64
2023-03-06T01:00:27.797Z,3.60
2023-03-06T01:01:23.839Z,3.72
2023-03-06T01:02:19.951Z,3.56
2023-03-06T01:03:15.410Z,3.64
2023-03-06T01:04:11.427Z,3.55
2023-03-06T01:05:06.981Z,3.63
2023-03-06T01:06:02.544Z,3.60
2023-03-06T01:06:58.567Z,3.56
2023-03-06T01:07:54.124Z,3.63
2023-03-06T01:08:49.697Z,3.64
2023-03-06T01:09:45.715Z,3.64
2023-03-06T01:10:41.273Z,3.67
2023-03-06T01:11:37.310Z,3.66
2023-03-06T01:12:33.310Z,3.63
2023-03-06T01:13:29.330Z,3.67
2023-03-06T01:14:24.884Z,3.63
2023-03-06T01:15:20.922Z,3.54
2023-03-06T01:16:16.982Z,3.60
2023-03-06T01:17:12.493Z,3.64
2023-03-06T01:18:08.516Z,3.64
2023-03-06T01:19:04.064Z,3.62
2023-03-06T01:19:59.660Z,3.67
2023-03-06T01:20:55.687Z,3.69
2023-03-06T01:21:51.237Z,3.63
2023-03-06T01:22:46.787Z,3.67
2023-03-06T01:23:42.805Z,3.63
2023-03-06T01:24:38.367Z,3.70
2023-03-06T01:25:33.942Z,3.70
2023-03-06T01:26:29.484Z,3.72
2023-03-06T01:27:25.054Z,3.59
2023-03-06T01:28:21.071Z,3.66
2023-03-06T01:29:17.078Z,3.67
2023-03-06T01:30:13.086Z,3.69
2023-03-06T01:31:09.114Z,3.70
2023-03-06T01:32:05.279Z,3.63
2023-03-06T01:33:00.712Z,3.67
2023-03-06T01:33:56.271Z,3.69
2023-03-06T01:34:52.288Z,3.66
2023-03-06T01:35:48.367Z,3.62
2023-03-06T01:36:44.344Z,3.67
2023-03-06T01:37:39.890Z,3.63
2023-03-06T01:38:35.437Z,3.69
2023-03-06T01:39:30.967Z,3.67
2023-03-06T01:40:27.115Z,3.62
2023-03-06T01:41:23.027Z,3.63
2023-03-06T01:42:19.047Z,3.63
2023-03-06T01:43:14.612Z,3.67
2023-03-06T01:44:10.754Z,3.63
2023-03-06T01:45:06.655Z,3.55
2023-03-06T01:46:02.237Z,3.62
2023-03-06T01:46:58.242Z,3.62
2023-03-06T01:47:54.260Z,3.63
2023-03-06T01:48:50.272Z,3.63
2023-03-06T01:49:46.296Z,3.67
2023-03-06T01:50:41.862Z,3.63
2023-03-06T01:51:38.400Z,3.62
2023-03-06T01:52:34.430Z,3.62
2023-03-06T01:53:30.437Z,3.63
2023-03-06T01:54:26.467Z,3.63
2023-03-06T01:55:22.477Z,3.63
2023-03-06T01:56:18.495Z,3.63
2023-03-06T01:57:14.532Z,3.59
2023-03-06T01:58:10.573Z,3.64
2023-03-06T01:59:06.222Z,3.59
2023-03-06T02:00:02.151Z,3.64
2023-03-06T02:00:57.714Z,3.62
2023-03-06T02:01:53.238Z,3.56
2023-03-06T02:02:48.796Z,3.62
2023-03-06T02:03:44.347Z,3.60
2023-03-06T02:04:39.902Z,3.63
2023-03-06T02:05:35.930Z,3.59
2023-03-06T02:06:31.955Z,3.63
2023-03-06T02:07:27.969Z,3.59
2023-03-06T02:08:24.003Z,3.62
2023-03-06T02:09:19.558Z,3.60
2023-03-06T02:10:15.205Z,3.54
2023-03-06T02:11:11.169Z,3.64
2023-03-06T02:12:07.152Z,3.63
2023-03-06T02:13:02.722Z,3.56
2023-03-06T02:13:58.307Z,3.62
2023-03-06T02:14:53.856Z,3.67
2023-03-06T02:15:49.870Z,3.60
2023-03-06T02:16:45.944Z,3.56
2023-03-06T02:17:41.439Z,3.56
2023-03-06T02:18:37.469Z,3.60
2023-03-06T02:19:33.043Z,3.55
2023-03-06T02:20:29.082Z,3.56
2023-03-06T02:21:24.617Z,3.66
2023-03-06T02:22:20.157Z,3.60
2023-03-06T02:23:15.699Z,3.60
2023-03-06T02:24:11.252Z,3.64
2023-03-06T02:25:07.309Z,3.60
2023-03-06T02:26:03.317Z,3.55
2023-03-06T02:26:59.363Z,3.64
2023-03-06T02:27:55.347Z,3.59
2023-03-06T02:28:51.367Z,3.56
2023-03-06T02:29:47.405Z,3.56
2023-03-06T02:30:43.021Z,3.59
2023-03-06T02:31:38.995Z,3.59
2023-03-06T02:32:35.024Z,3.67
2023-03-06T02:33:31.042Z,3.63
2023-03-06T02:34:27.054Z,3.62
2023-03-06T02:35:23.120Z,3.64
2023-03-06T02:36:19.117Z,3.59
2023-03-06T02:37:15.132Z,3.59
2023-03-06T02:38:11.169Z,3.56
2023-03-06T02:39:07.189Z,3.70
2023-03-06T02:40:02.963Z,3.70
2023-03-06T02:40:58.976Z,3.69
2023-03-06T02:41:55.012Z,3.64
2023-03-06T02:42:50.586Z,3.67
2023-03-06T02:43:46.578Z,3.64
2023-03-06T02:44:42.594Z,3.72
2023-03-06T02:45:38.710Z,3.67
2023-03-06T02:46:34.815Z,3.63
2023-03-06T02:47:30.282Z,3.60
2023-03-06T02:48:26.316Z,3.72
2023-03-06T02:49:22.342Z,3.69
2023-03-06T02:50:17.893Z,3.66
2023-03-06T02:51:13.912Z,3.70
2023-03-06T02:52:09.948Z,3.64
2023-03-06T02:53:05.966Z,3.73
2023-03-06T02:54:01.982Z,3.64
2023-03-06T02:54:58.015Z,3.69
2023-03-06T02:55:54.020Z,3.67
2023-03-06T02:56:50.043Z,3.72
2023-03-06T02:57:45.587Z,3.67
2023-03-06T02:58:41.144Z,3.67
2023-03-06T02:59:37.180Z,3.70
2023-03-06T03:00:32.730Z,3.70
2023-03-06T03:01:28.833Z,3.66
2023-03-06T03:02:24.817Z,3.76
2023-03-06T03:03:20.820Z,3.66
2023-03-06T03:04:16.472Z,3.70
2023-03-06T03:05:11.961Z,3.67
2023-03-06T03:06:07.527Z,3.67
2023-03-06T03:07:03.074Z,3.70
2023-03-06T03:07:59.124Z,3.66
2023-03-06T03:08:54.641Z,3.81
2023-03-06T03:09:50.672Z,3.73
2023-03-06T03:10:46.727Z,3.67
2023-03-06T03:11:42.744Z,3.70
2023-03-06T03:12:38.758Z,3.64
2023-03-06T03:13:34.768Z,3.72
2023-03-06T03:14:30.784Z,3.70
2023-03-06T03:15:26.796Z,3.69
2023-03-06T03:16:22.837Z,3.73
2023-03-06T03:17:18.858Z,3.82
2023-03-06T03:18:14.436Z,3.84
2023-03-06T03:19:09.972Z,3.76
2023-03-06T03:20:05.534Z,3.81
2023-03-06T03:21:01.553Z,3.74
2023-03-06T03:21:57.122Z,3.85
2023-03-06T03:22:52.697Z,3.84
2023-03-06T03:23:48.250Z,3.80
2023-03-06T03:24:44.345Z,3.85
2023-03-06T03:25:39.812Z,3.74
2023-03-06T03:26:35.855Z,3.81
2023-03-06T03:27:31.399Z,3.81
2023-03-06T03:28:27.461Z,3.94
2023-03-06T03:29:23.036Z,3.84
2023-03-06T03:30:18.568Z,3.91
2023-03-06T03:31:14.616Z,3.91
2023-03-06T03:32:10.718Z,3.87
2023-03-06T03:33:06.221Z,3.84
2023-03-06T03:34:02.210Z,3.91
2023-03-06T03:34:57.739Z,3.90
2023-03-06T03:35:53.340Z,3.92
2023-03-06T03:36:48.843Z,3.90
2023-03-06T03:37:44.910Z,3.91
2023-03-06T03:38:40.449Z,3.82
2023-03-06T03:39:36.041Z,3.85
2023-03-06T03:40:32.050Z,3.84
2023-03-06T03:41:27.639Z,3.84
2023-03-06T03:42:23.182Z,3.91
2023-03-06T03:43:19.223Z,3.90
2023-03-06T03:44:14.768Z,3.92
2023-03-06T03:45:10.811Z,3.88
2023-03-06T03:46:06.889Z,3.91
2023-03-06T03:47:02.875Z,3.88
2023-03-06T03:47:58.447Z,3.99
2023-03-06T03:48:54.008Z,3.81
2023-03-06T03:49:49.586Z,3.99
2023-03-06T03:50:45.130Z,3.92
2023-03-06T03:51:41.154Z,4.00
2023-03-06T03:52:37.203Z,3.84
2023-03-06T03:53:32.776Z,3.92
2023-03-06T03:54:28.805Z,3.92
2023-03-06T03:55:24.831Z,3.98
2023-03-06T03:56:20.412Z,4.00
2023-03-06T03:57:16.425Z,4.05
2023-03-06T03:58:11.987Z,3.92
2023-03-06T03:59:07.534Z,4.00
2023-03-06T04:00:03.556Z,3.99
2023-03-06T04:00:59.570Z,3.99
2023-03-06T04:01:55.164Z,3.96
2023-03-06T04:02:51.168Z,3.94
2023-03-06T04:03:47.212Z,4.05
2023-03-06T04:04:43.311Z,4.02
2023-03-06T04:05:39.269Z,4.06
2023-03-06T04:06:35.275Z,4.08
2023-03-06T04:07:30.825Z,4.10
2023-03-06T04:08:26.873Z,3.99
2023-03-06T04:09:22.904Z,4.09
2023-03-06T04:10:18.920Z,4.06
2023-03-06T04:11:14.479Z,4.00
2023-03-06T04:12:10.519Z,4.00
2023-03-06T04:13:09.536Z,4.03
2023-03-06T04:14:02.562Z,4.06
2023-03-06T04:14:58.594Z,4.10
2023-03-06T04:15:54.208Z,4.13
2023-03-06T04:16:49.701Z,4.16
2023-03-06T04:17:45.239Z,4.13
2023-03-06T04:18:41.267Z,4.17
2023-03-06T04:19:37.299Z,4.17
2023-03-06T04:20:33.333Z,4.21
2023-03-06T04:21:29.371Z,4.10
2023-03-06T04:22:25.391Z,4.10
2023-03-06T04:23:21.412Z,4.12
2023-03-06T04:24:17.454Z,4.08
2023-03-06T04:25:13.470Z,4.16
2023-03-06T04:26:09.511Z,4.17
2023-03-06T04:27:05.059Z,4.13
2023-03-06T04:28:01.076Z,4.17
2023-03-06T04:28:57.084Z,4.13
2023-03-06T04:29:53.106Z,4.12
2023-03-06T04:30:48.661Z,4.23
2023-03-06T04:31:44.779Z,4.20
2023-03-06T04:32:40.816Z,4.09
2023-03-06T04:33:36.308Z,4.18
2023-03-06T04:34:31.863Z,4.18
2023-03-06T04:35:27.932Z,4.18
2023-03-06T04:36:23.427Z,4.23
2023-03-06T04:37:18.996Z,4.18
2023-03-06T04:38:15.010Z,4.17
2023-03-06T04:39:10.586Z,4.18
2023-03-06T04:40:06.132Z,4.23
2023-03-06T04:41:01.683Z,4.20
2023-03-06T04:41:57.695Z,4.18
2023-03-06T04:42:53.704Z,4.17
2023-03-06T04:43:49.766Z,4.16
2023-03-06T04:44:45.798Z,4.12
2023-03-06T04:45:41.403Z,4.20
2023-03-06T04:46:37.323Z,4.16
2023-03-06T04:47:32.864Z,4.12
2023-03-06T04:48:28.402Z,4.12
2023-03-06T04:49:23.977Z,4.17
2023-03-06T04:50:19.521Z,4.17
2023-03-06T04:51:15.158Z,4.21
2023-03-06T04:52:10.741Z,4.16
2023-03-06T04:53:06.380Z,4.18
2023-03-06T04:54:02.514Z,4.17
2023-03-06T04:54:58.060Z,4.20
2023-03-06T04:55:53.608Z,4.18
2023-03-06T04:56:49.153Z,4.16
2023-03-06T04:57:44.715Z,4.21
2023-03-06T04:58:40.293Z,4.18
2023-03-06T04:59:38.752Z,4.13
2023-03-06T05:00:31.918Z,4.16
2023-03-06T05:01:27.857Z,4.16
2023-03-06T05:02:23.490Z,4.16
2023-03-06T05:03:19.432Z,4.20
2023-03-06T05:04:15.457Z,4.17
2023-03-06T05:05:11.018Z,4.13
2023-03-06T05:06:06.575Z,4.18
2023-03-06T05:07:02.120Z,4.10
2023-03-06T05:07:57.695Z,4.16
2023-03-06T05:08:53.263Z,4.10
2023-03-06T05:09:48.790Z,4.21
2023-03-06T05:10:44.838Z,4.10
2023-03-06T05:11:40.391Z,4.16
2023-03-06T05:12:36.400Z,4.17
2023-03-06T05:13:32.421Z,4.17
2023-03-06T05:14:28.435Z,4.10
2023-03-06T05:15:24.453Z,4.13
2023-03-06T05:16:20.514Z,4.10
2023-03-06T05:17:16.029Z,4.17
2023-03-06T05:18:12.071Z,4.16
2023-03-06T05:19:08.084Z,4.12
2023-03-06T05:20:04.115Z,4.10
2023-03-06T05:20:59.654Z,4.08
2023-03-06T05:21:55.717Z,4.16
2023-03-06T05:22:51.745Z,4.03
2023-03-06T05:23:47.784Z,4.09
2023-03-06T05:24:43.866Z,4.05
2023-03-06T05:25:39.823Z,4.09
2023-03-06T05:26:35.855Z,4.05
2023-03-06T05:27:31.889Z,4.10
2023-03-06T05:28:27.438Z,4.00
2023-03-06T05:29:23.010Z,4.10
2023-03-06T05:30:18.556Z,4.05
2023-03-06T05:31:14.589Z,4.00
2023-03-06T05:32:12.771Z,4.09
2023-03-06T05:33:08.161Z,4.16
2023-03-06T05:34:03.746Z,4.09
2023-03-06T05:34:59.330Z,4.09
2023-03-06T05:35:55.403Z,4.08
2023-03-06T05:36:50.921Z,4.06
2023-03-06T05:37:46.477Z,3.99
2023-03-06T05:38:42.501Z,4.10
2023-03-06T05:39:38.521Z,4.00
2023-03-06T05:40:34.660Z,4.06
2023-03-06T05:41:30.761Z,3.98
2023-03-06T05:42:28.562Z,3.92
2023-03-06T05:43:22.295Z,4.05
2023-03-06T05:44:18.433Z,3.98
2023-03-06T05:45:14.456Z,4.00
2023-03-06T05:46:10.074Z,3.96
2023-03-06T05:47:05.660Z,4.03
2023-03-06T05:48:01.684Z,3.99
2023-03-06T05:48:57.737Z,4.05
2023-03-06T05:49:53.736Z,4.02
2023-03-06T05:50:49.754Z,4.00
2023-03-06T05:51:45.309Z,3.91
2023-03-06T05:52:40.853Z,4.05
2023-03-06T05:53:36.494Z,4.00
2023-03-06T05:54:32.019Z,3.99
2023-03-06T05:55:28.024Z,3.99
2023-03-06T05:56:24.067Z,3.96
2023-03-06T05:57:20.101Z,3.91
2023-03-06T05:58:15.657Z,3.87
2023-03-06T05:59:11.775Z,3.92
2023-03-06T06:00:07.340Z,3.84
2023-03-06T06:01:02.856Z,3.88
2023-03-06T06:01:58.451Z,3.98
2023-03-06T06:02:54.465Z,3.96
2023-03-06T06:03:50.628Z,3.98
2023-03-06T06:04:46.509Z,3.94
2023-03-06T06:05:42.522Z,4.03
2023-03-06T06:06:38.100Z,3.92
2023-03-06T06:07:33.674Z,3.82
2023-03-06T06:08:29.255Z,3.87
2023-03-06T06:09:24.792Z,3.92
2023-03-06T06:10:20.344Z,3.91
2023-03-06T06:11:15.896Z,3.92
2023-03-06T06:12:11.476Z,3.96
2023-03-06T06:13:07.016Z,3.87
2023-03-06T06:14:03.061Z,3.80
2023-03-06T06:14:58.605Z,3.92
2023-03-06T06:15:54.241Z,3.88
2023-03-06T06:16:49.723Z,3.90
2023-03-06T06:17:45.259Z,3.90
2023-03-06T06:18:41.527Z,3.90
2023-03-06T06:19:36.840Z,3.88
2023-03-06T06:20:32.380Z,3.91
2023-03-06T06:21:27.935Z,3.88
2023-03-06T06:22:23.519Z,3.88
2023-03-06T06:23:19.072Z,3.87
2023-03-06T06:24:14.635Z,3.82
2023-03-06T06:25:10.167Z,3.92
2023-03-06T06:26:05.711Z,3.82
2023-03-06T06:27:03.927Z,3.90
2023-03-06T06:27:57.709Z,3.87
2023-03-06T06:28:54.255Z,3.80
2023-03-06T06:29:49.800Z,3.81
2023-03-06T06:30:45.405Z,3.90
2023-03-06T06:31:40.908Z,3.81
2023-03-06T06:32:36.543Z,3.81
2023-03-06T06:33:32.007Z,3.87
2023-03-06T06:34:28.026Z,3.78
2023-03-06T06:35:24.120Z,3.78
2023-03-06T06:36:19.694Z,3.84
2023-03-06T06:37:15.240Z,3.78
2023-03-06T06:38:11.308Z,3.73
2023-03-06T06:39:07.350Z,3.82
2023-03-06T06:40:02.886Z,3.82
2023-03-06T06:41:33.066Z,3.85
2023-03-06T06:42:06.323Z,3.80
2023-03-06T06:42:50.009Z,3.73
2023-03-06T06:43:46.068Z,3.73
2023-03-06T06:44:41.588Z,3.84
2023-03-06T06:45:37.136Z,3.76
2023-03-06T06:47:19.276Z,3.82
2023-03-06T06:47:28.278Z,3.87
2023-03-06T06:48:23.771Z,3.80
2023-03-06T06:49:19.335Z,3.76
2023-03-06T06:50:15.379Z,3.76
2023-03-06T06:51:10.911Z,3.82
2023-03-06T06:52:06.481Z,3.90
2023-03-06T06:53:02.008Z,3.92
2023-03-06T06:53:57.562Z,3.92
2023-03-06T06:54:53.617Z,3.84
2023-03-06T06:55:49.209Z,3.90
2023-03-06T06:56:44.772Z,3.90
2023-03-06T06:57:40.793Z,3.90
2023-03-06T06:58:36.351Z,3.98
2023-03-06T06:59:32.386Z,3.91
2023-03-06T07:00:27.929Z,3.92
2023-03-06T07:01:24.026Z,3.87
2023-03-06T07:02:19.500Z,3.87
2023-03-06T07:03:15.051Z,3.80
2023-03-06T07:04:10.670Z,3.82
2023-03-06T07:05:06.155Z,3.87
2023-03-06T07:06:01.714Z,3.92
2023-03-06T07:06:57.350Z,3.87
2023-03-06T07:07:52.915Z,3.90
2023-03-06T07:08:48.948Z,3.85
2023-03-06T07:09:55.779Z,3.85
2023-03-06T07:10:51.324Z,3.91
2023-03-06T07:11:55.029Z,3.80
2023-03-06T07:12:51.144Z,3.90
2023-03-06T07:13:47.138Z,3.85
2023-03-06T07:14:43.165Z,3.74
2023-03-06T07:15:39.277Z,3.78
2023-03-06T07:16:35.168Z,3.84
2023-03-06T07:17:32.200Z,3.92
2023-03-06T07:18:29.261Z,3.82
2023-03-06T07:19:25.289Z,3.82
2023-03-06T07:20:21.372Z,3.74
2023-03-06T07:21:17.417Z,3.90
2023-03-06T07:22:13.830Z,3.78
2023-03-06T07:23:09.575Z,3.84
2023-03-06T07:24:05.653Z,3.88
2023-03-06T07:25:01.697Z,3.81
2023-03-06T07:25:57.742Z,3.80
2023-03-06T07:26:53.844Z,3.84
2023-03-06T07:27:53.651Z,3.90
2023-03-06T07:28:52.283Z,3.84
2023-03-06T07:29:41.932Z,3.96
2023-03-06T07:30:38.033Z,3.88
2023-03-06T07:31:34.030Z,3.87
2023-03-06T07:32:30.053Z,3.91
2023-03-06T07:33:26.410Z,3.88
2023-03-06T07:34:22.204Z,3.98
2023-03-06T07:35:20.853Z,3.81
2023-03-06T07:36:15.299Z,3.85
2023-03-06T07:37:11.349Z,4.02
2023-03-06T07:38:07.388Z,3.91
2023-03-06T07:39:03.495Z,3.90
2023-03-06T07:40:00.618Z,4.00
2023-03-06T07:40:56.610Z,4.00
2023-03-06T07:41:52.613Z,4.05
2023-03-06T07:42:48.715Z,3.99
2023-03-06T07:43:44.793Z,3.98
2023-03-06T07:44:40.872Z,4.05
2023-03-06T07:45:37.022Z,4.00
2023-03-06T07:46:33.027Z,4.03
2023-03-06T07:47:20.269Z,4.10
2023-03-06T07:48:17.360Z,3.99
2023-03-06T07:49:25.693Z,4.03
2023-03-06T07:50:24.159Z,4.02
2023-03-06T07:51:20.310Z,4.18
2023-03-06T07:52:16.262Z,4.09
2023-03-06T07:53:13.327Z,4.16
2023-03-06T07:54:10.417Z,4.18
2023-03-06T07:55:18.102Z,4.13
2023-03-06T07:56:15.151Z,4.17
2023-03-06T07:57:11.115Z,4.20
2023-03-06T07:58:07.287Z,4.16
2023-03-06T07:59:03.329Z,4.24
2023-03-06T08:00:01.306Z,4.13
2023-03-06T08:00:57.621Z,4.23
2023-03-06T08:01:53.666Z,4.18
2023-03-06T08:02:50.704Z,4.18
2023-03-06T08:03:47.835Z,4.21
2023-03-06T08:04:43.809Z,4.21
2023-03-06T08:05:39.923Z,4.26
2023-03-06T08:06:48.064Z,4.23
2023-03-06T08:07:44.061Z,4.35
2023-03-06T08:08:40.157Z,4.36
2023-03-06T08:09:36.157Z,4.28
2023-03-06T08:10:43.661Z,4.36
2023-03-06T08:11:39.615Z,4.20
2023-03-06T08:12:36.840Z,4.35
2023-03-06T08:13:32.867Z,4.36
2023-03-06T08:14:20.587Z,4.31
2023-03-06T08:15:27.449Z,4.31
2023-03-06T08:16:34.945Z,4.34
2023-03-06T08:17:30.859Z,4.20
2023-03-06T08:18:26.963Z,4.34
2023-03-06T08:19:23.047Z,4.36
2023-03-06T08:20:19.226Z,4.35
2023-03-06T08:21:15.083Z,4.34
2023-03-06T08:22:11.446Z,4.36
2023-03-06T08:23:18.611Z,4.35
2023-03-06T08:24:14.674Z,4.36
2023-03-06T08:25:10.795Z,4.31
2023-03-06T08:26:06.904Z,4.42
2023-03-06T08:27:03.936Z,4.39
2023-03-06T08:28:00.652Z,4.39
2023-03-06T08:28:56.172Z,4.34
2023-03-06T08:29:52.073Z,4.38
2023-03-06T08:30:48.333Z,4.39
2023-03-06T08:31:45.387Z,4.36
2023-03-06T08:32:41.514Z,4.39
2023-03-06T08:33:37.452Z,4.38
2023-03-06T08:34:33.416Z,4.36
2023-03-06T08:35:41.054Z,4.42
2023-03-06T08:36:37.198Z,4.36
2023-03-06T08:37:33.261Z,4.34
2023-03-06T08:38:30.244Z,4.31
2023-03-06T08:39:26.344Z,4.35
2023-03-06T08:40:22.365Z,4.36
2023-03-06T08:41:19.448Z,4.42
2023-03-06T08:42:25.815Z,4.36
2023-03-06T08:43:21.789Z,4.23
2023-03-06T08:44:17.926Z,4.36
2023-03-06T08:45:25.256Z,4.35
2023-03-06T08:46:21.229Z,4.27
2023-03-06T08:47:17.286Z,4.30
2023-03-06T08:48:13.315Z,4.36
2023-03-06T08:49:09.368Z,4.38
2023-03-06T08:50:05.523Z,4.31
2023-03-06T08:51:02.506Z,4.23
2023-03-06T08:51:58.675Z,4.23
2023-03-06T08:52:55.055Z,4.35
2023-03-06T08:53:50.856Z,4.28
2023-03-06T08:54:46.979Z,4.26
2023-03-06T08:55:43.018Z,4.24
2023-03-06T08:56:38.962Z,4.24
2023-03-06T08:57:35.013Z,4.27
2023-03-06T08:58:31.175Z,4.20
2023-03-06T08:59:27.120Z,4.21
2023-03-06T09:00:25.221Z,4.21
2023-03-06T09:01:21.210Z,4.27
2023-03-06T09:02:17.365Z,4.27
2023-03-06T09:03:13.325Z,4.24
2023-03-06T09:04:10.399Z,4.27
2023-03-06T09:05:06.566Z,4.21
2023-03-06T09:06:03.499Z,4.21
2023-03-06T09:07:01.774Z,4.17
2023-03-06T09:07:58.689Z,4.27
2023-03-06T09:08:54.788Z,4.20
2023-03-06T09:09:51.927Z,4.21
2023-03-06T09:10:47.911Z,4.20
2023-03-06T09:11:44.006Z,4.13
2023-03-06T09:12:50.669Z,4.20
2023-03-06T09:13:38.090Z,4.18
2023-03-06T09:14:34.210Z,4.18
2023-03-06T09:15:30.264Z,4.16
2023-03-06T09:16:26.198Z,4.21
2023-03-06T09:17:22.355Z,4.23
2023-03-06T09:18:18.347Z,4.20
2023-03-06T09:19:15.305Z,4.16
2023-03-06T09:20:11.459Z,4.18
2023-03-06T09:21:08.468Z,4.17
2023-03-06T09:22:04.595Z,4.16
2023-03-06T09:23:00.679Z,4.12
2023-03-06T09:23:57.684Z,4.12
2023-03-06T09:24:53.959Z,4.12
2023-03-06T09:25:50.841Z,4.00
2023-03-06T09:26:48.377Z,4.13
2023-03-06T09:27:43.088Z,4.16
2023-03-06T09:28:39.299Z,4.13
2023-03-06T09:29:36.156Z,4.09
2023-03-06T09:30:32.335Z,4.03
2023-03-06T09:31:29.353Z,4.10
2023-03-06T09:32:25.643Z,4.12
2023-03-06T09:33:10.421Z,4.06
2023-03-06T09:34:07.485Z,4.09
2023-03-06T09:35:03.539Z,4.09
2023-03-06T09:36:00.660Z,4.06
2023-03-06T09:36:57.752Z,4.06
2023-03-06T09:38:04.096Z,4.08
2023-03-06T09:39:01.112Z,4.05
2023-03-06T09:39:57.184Z,4.03
2023-03-06T09:40:54.191Z,4.05
2023-03-06T09:41:51.411Z,4.05
2023-03-06T09:42:47.425Z,4.09
2023-03-06T09:43:43.403Z,4.05
2023-03-06T09:44:42.180Z,4.08
2023-03-06T09:45:38.273Z,3.99
2023-03-06T09:46:34.387Z,3.99
2023-03-06T09:47:30.380Z,4.06
2023-03-06T09:48:27.450Z,4.05
2023-03-06T09:49:23.489Z,4.05
2023-03-06T09:50:20.649Z,4.10
2023-03-06T09:51:16.920Z,4.00
2023-03-06T09:52:12.762Z,4.06
2023-03-06T09:53:08.760Z,4.02
2023-03-06T09:53:54.038Z,4.00
2023-03-06T09:54:50.214Z,3.99
2023-03-06T09:55:46.155Z,3.99
2023-03-06T09:56:42.775Z,4.06
2023-03-06T09:57:38.578Z,3.96
2023-03-06T09:58:34.416Z,4.00
2023-03-06T09:59:41.734Z,4.03
2023-03-06T10:00:38.854Z,3.96
2023-03-06T10:01:34.986Z,3.99
2023-03-06T10:02:31.046Z,3.99
2023-03-06T10:03:27.314Z,3.99
2023-03-06T10:04:24.480Z,4.03
2023-03-06T10:05:20.444Z,4.02
2023-03-06T10:06:16.813Z,3.99
2023-03-06T10:07:12.642Z,3.91
2023-03-06T10:08:08.935Z,4.05
2023-03-06T10:09:05.904Z,3.96
2023-03-06T10:10:01.942Z,4.03
2023-03-06T10:10:59.059Z,3.94
2023-03-06T10:11:56.042Z,4.00
2023-03-06T10:12:53.201Z,3.99
2023-03-06T10:13:49.629Z,3.90
2023-03-06T10:14:48.914Z,3.98
2023-03-06T10:15:42.426Z,3.98
2023-03-06T10:16:38.439Z,3.90
2023-03-06T10:17:34.556Z,4.03
2023-03-06T10:18:30.497Z,3.98
2023-03-06T10:19:26.907Z,3.99
2023-03-06T10:20:23.057Z,4.05
2023-03-06T10:21:31.244Z,4.02
2023-03-06T10:22:27.461Z,3.99
2023-03-06T10:23:25.397Z,3.99
2023-03-06T10:24:22.329Z,3.96
2023-03-06T10:25:18.456Z,4.06
2023-03-06T10:26:14.720Z,3.94
2023-03-06T10:27:10.662Z,4.02
2023-03-06T10:28:15.430Z,4.00
2023-03-06T10:29:00.392Z,4.08
2023-03-06T10:30:02.527Z,4.02
2023-03-06T10:30:53.108Z,4.03
2023-03-06T10:31:51.242Z,4.08
2023-03-06T10:32:49.033Z,3.96
2023-03-06T10:33:44.274Z,4.13
2023-03-06T10:34:40.415Z,4.08
2023-03-06T10:35:36.586Z,4.03
2023-03-06T10:36:32.451Z,4.05
2023-03-06T10:37:17.570Z,4.05
2023-03-06T10:38:13.465Z,4.13
2023-03-06T10:39:09.662Z,4.09
2023-03-06T10:40:05.638Z,4.03
2023-03-06T10:41:03.759Z,4.02
2023-03-06T10:42:00.795Z,4.06
2023-03-06T10:43:11.818Z,4.12
2023-03-06T10:44:13.894Z,4.12
2023-03-06T10:45:18.001Z,4.12
2023-03-06T10:46:22.825Z,4.10
2023-03-06T10:47:29.361Z,4.13
2023-03-06T10:48:34.362Z,4.13
2023-03-06T10:49:27.237Z,4.13
2023-03-06T10:50:32.994Z,4.18
2023-03-06T10:51:38.199Z,4.20
2023-03-06T10:52:46.718Z,4.12
2023-03-06T10:53:42.751Z,4.20
2023-03-06T10:54:38.767Z,4.21
2023-03-06T10:55:34.800Z,4.16
2023-03-06T10:56:30.921Z,4.26
2023-03-06T10:57:24.859Z,4.23
2023-03-06T10:58:20.384Z,4.16
2023-03-06T10:59:16.011Z,4.12
2023-03-06T11:00:11.548Z,4.20
2023-03-06T11:01:07.108Z,4.21
2023-03-06T11:02:04.365Z,4.26
2023-03-06T11:02:59.734Z,4.23
2023-03-06T11:03:55.267Z,4.23
2023-03-06T11:04:50.926Z,4.26
2023-03-06T11:05:46.339Z,4.23
2023-03-06T11:06:41.864Z,4.23
2023-03-06T11:07:38.398Z,4.28
2023-03-06T11:08:33.966Z,4.30
2023-03-06T11:09:29.469Z,4.34
2023-03-06T11:10:25.002Z,4.30
2023-03-06T11:11:36.546Z,4.38
2023-03-06T11:12:16.089Z,4.34
2023-03-06T11:13:11.718Z,4.31
2023-03-06T11:14:07.243Z,4.36
2023-03-06T11:15:02.771Z,4.39
2023-03-06T11:15:58.385Z,4.39
2023-03-06T11:16:53.836Z,4.36
2023-03-06T11:17:49.355Z,4.28
2023-03-06T11:18:44.914Z,4.38
2023-03-06T11:19:40.418Z,4.39
2023-03-06T11:20:50.464Z,4.39
2023-03-06T11:21:31.928Z,4.41
2023-03-06T11:22:27.010Z,4.35
2023-03-06T11:23:22.546Z,4.41
2023-03-06T11:24:18.094Z,4.48
2023-03-06T11:25:13.587Z,4.42
2023-03-06T11:26:09.116Z,4.41
2023-03-06T11:27:04.653Z,4.51
2023-03-06T11:28:00.237Z,4.41
2023-03-06T11:28:55.768Z,4.30
2023-03-06T11:29:51.252Z,4.38
2023-03-06T11:30:46.784Z,4.43
2023-03-06T11:31:42.358Z,4.41
2023-03-06T11:32:37.883Z,4.45
2023-03-06T11:33:33.376Z,4.54
2023-03-06T11:34:28.914Z,4.41
2023-03-06T11:35:24.461Z,4.39
2023-03-06T11:36:19.953Z,4.45
2023-03-06T11:37:15.481Z,4.43
2023-03-06T11:38:11.038Z,4.39
2023-03-06T11:39:06.572Z,4.45
2023-03-06T11:40:02.145Z,4.42
2023-03-06T11:40:57.639Z,4.42
2023-03-06T11:41:53.177Z,4.54
2023-03-06T11:42:48.701Z,4.51
2023-03-06T11:43:44.225Z,4.53
2023-03-06T11:44:39.756Z,4.51
2023-03-06T11:45:35.289Z,4.45
2023-03-06T11:46:30.870Z,4.51
2023-03-06T11:47:26.332Z,4.45
2023-03-06T11:48:21.874Z,4.49
2023-03-06T11:49:17.395Z,4.49
2023-03-06T11:50:12.925Z,4.49
2023-03-06T11:51:08.446Z,4.53
2023-03-06T11:52:03.976Z,4.56
2023-03-06T11:52:59.528Z,4.54
2023-03-06T11:53:55.060Z,4.53
2023-03-06T11:54:50.581Z,4.42
2023-03-06T11:55:46.135Z,4.53
2023-03-06T11:56:41.630Z,4.46
2023-03-06T11:57:37.145Z,4.53
2023-03-06T11:58:32.679Z,4.53
2023-03-06T11:59:28.202Z,4.59
2023-03-06T12:00:23.725Z,4.54
2023-03-06T12:01:19.289Z,4.60
2023-03-06T12:02:14.907Z,4.57
2023-03-06T12:03:10.395Z,4.57
2023-03-06T12:04:05.943Z,4.60
2023-03-06T12:05:01.722Z,4.56
2023-03-06T12:05:57.005Z,4.51
2023-03-06T12:06:52.526Z,4.64
2023-03-06T12:07:48.071Z,4.69
2023-03-06T12:08:43.586Z,4.66
2023-03-06T12:09:39.124Z,4.63
2023-03-06T12:10:34.669Z,4.67
2023-03-06T12:11:32.687Z,4.72
2023-03-06T12:12:25.750Z,4.72
2023-03-06T12:13:21.258Z,4.72
2023-03-06T12:14:16.776Z,4.71
2023-03-06T12:15:12.307Z,4.78
2023-03-06T12:16:07.907Z,4.77
2023-03-06T12:17:03.382Z,4.75
2023-03-06T12:17:58.912Z,4.88
2023-03-06T12:18:54.446Z,4.85
2023-03-06T12:19:49.969Z,4.77
2023-03-06T12:20:45.499Z,4.82
2023-03-06T12:21:41.084Z,4.85
2023-03-06T12:22:36.592Z,4.89
2023-03-06T12:23:32.125Z,4.91
2023-03-06T12:24:27.676Z,4.88
2023-03-06T12:25:23.193Z,4.88
2023-03-06T12:26:18.813Z,4.89
2023-03-06T12:27:14.378Z,4.93